Time;durP1;ratioP1;P1;durP2;ratioP2;P2;SDS_P1;SDS_P2;PMS_P1;PMS_P2;Temp;Humidity;BMP_temperature;BMP_pressure;BME280_temperature;BME280_humidity;BME280_pressure;Samples;Min_cycle;Max_cycle;Signal;HPM_P1;HPM_P2
2022/09/14 00:01:50;;;;;;;3.58;1.38;;;12.90;99.90;;;;;;5022548;28;20065;-47
2022/09/14 00:04:18;;;;;;;2.30;1.17;;;12.90;99.90;;;;;;5008748;28;20017;-47
2022/09/14 00:06:45;;;;;;;2.05;1.10;;;12.80;99.90;;;;;;5006326;28;20109;-48
2022/09/14 00:09:15;;;;;;;3.42;1.10;;;12.80;99.90;;;;;;5020091;28;20013;-47
2022/09/14 00:11:40;;;;;;;3.55;1.02;;;12.80;99.90;;;;;;5024484;28;20021;-46
2022/09/14 00:14:06;;;;;;;4.45;1.45;;;12.80;99.90;;;;;;5021000;28;20079;-47
2022/09/14 00:16:35;;;;;;;5.22;1.20;;;12.70;99.90;;;;;;5017673;28;20546;-49
2022/09/14 00:19:06;;;;;;;5.55;1.60;;;12.70;99.90;;;;;;5024463;28;20109;-48
2022/09/14 00:21:34;;;;;;;3.00;1.17;;;12.70;99.90;;;;;;5019934;28;20022;-49
2022/09/14 00:24:00;;;;;;;3.40;1.35;;;12.70;99.90;;;;;;5025779;28;20025;-49
2022/09/14 00:26:25;;;;;;;2.17;1.08;;;12.70;99.90;;;;;;5007257;28;20435;-47
2022/09/14 00:28:53;;;;;;;5.00;0.95;;;12.60;99.90;;;;;;5017690;28;20021;-46
2022/09/14 00:31:20;;;;;;;3.15;1.50;;;12.60;99.90;;;;;;5011204;28;20087;-46
2022/09/14 00:33:47;;;;;;;4.07;1.40;;;12.60;99.90;;;;;;5003932;28;20282;-47
2022/09/14 00:36:28;;;;;;;1.75;0.88;;;12.60;99.90;;;;;;5022567;28;20044;-48
2022/09/14 00:38:59;;;;;;;3.97;1.02;;;12.60;99.90;;;;;;5001581;28;20026;-48
2022/09/14 00:41:31;;;;;;;4.65;1.30;;;12.60;99.90;;;;;;5027202;28;20052;-50
2022/09/14 00:43:58;;;;;;;5.28;1.80;;;12.50;99.90;;;;;;5024786;23;20042;-56
2022/09/14 00:46:26;;;;;;;2.67;0.75;;;12.50;99.90;;;;;;4998392;28;20025;-52
2022/09/14 00:48:53;;;;;;;2.53;0.80;;;12.50;99.90;;;;;;5002531;28;20014;-54
2022/09/14 00:51:20;;;;;;;6.60;1.30;;;12.50;99.90;;;;;;5004169;28;20109;-57
2022/09/14 00:53:47;;;;;;;3.88;1.17;;;12.40;99.90;;;;;;5003452;28;20393;-54
2022/09/14 00:56:13;;;;;;;7.60;1.42;;;12.40;99.90;;;;;;5004390;28;20049;-53
2022/09/14 00:58:40;;;;;;;5.60;1.92;;;12.40;99.90;;;;;;5001977;28;20061;-53
2022/09/14 01:01:08;;;;;;;5.88;1.98;;;12.40;99.90;;;;;;5000991;28;20022;-54
2022/09/14 01:03:34;;;;;;;7.88;1.77;;;12.40;99.90;;;;;;5001765;28;20045;-53
2022/09/14 01:06:14;;;;;;;4.95;1.08;;;12.40;99.90;;;;;;5001588;28;20515;-55
2022/09/14 01:08:45;;;;;;;3.55;1.25;;;12.30;99.90;;;;;;5004282;28;20488;-55
2022/09/14 01:11:16;;;;;;;6.18;1.75;;;12.30;99.90;;;;;;5003211;28;20038;-55
2022/09/14 01:13:48;;;;;;;2.53;1.00;;;12.30;99.90;;;;;;5003939;28;20396;-55
2022/09/14 01:16:30;;;;;;;3.30;1.40;;;12.30;99.90;;;;;;5001702;28;20018;-52
2022/09/14 01:19:02;;;;;;;3.00;1.20;;;12.30;99.90;;;;;;5002767;28;20026;-55
2022/09/14 01:21:32;;;;;;;4.22;1.20;;;12.30;99.90;;;;;;4998890;28;20492;-52
2022/09/14 01:24:14;;;;;;;3.90;1.30;;;12.30;99.90;;;;;;5002889;28;20030;-53
2022/09/14 01:26:52;;;;;;;2.55;1.35;;;12.30;99.90;;;;;;5002677;28;20018;-51
2022/09/14 01:29:27;;;;;;;2.65;1.00;;;12.20;99.90;;;;;;4995537;28;20025;-56
2022/09/14 01:32:02;;;;;;;6.63;1.58;;;12.20;99.90;;;;;;5000889;28;20023;-56
2022/09/14 01:35:00;;;;;;;4.95;1.45;;;12.10;99.90;;;;;;5004760;28;20130;-57
2022/09/14 01:37:47;;;;;;;5.13;1.60;;;12.10;99.90;;;;;;4991539;28;20030;-53
2022/09/14 01:40:31;;;;;;;5.72;1.30;;;12.10;99.90;;;;;;5003893;28;20033;-56
2022/09/14 01:43:11;;;;;;;3.30;1.23;;;12.00;99.90;;;;;;5003491;28;20389;-58
2022/09/14 01:45:41;;;;;;;6.95;1.95;;;12.00;99.90;;;;;;5003534;28;20084;-53
2022/09/14 01:48:09;;;;;;;3.42;1.33;;;12.00;99.90;;;;;;5001116;28;20077;-52
2022/09/14 01:50:42;;;;;;;4.75;1.10;;;12.00;99.90;;;;;;4988165;28;20026;-54
2022/09/14 01:53:27;;;;;;;2.58;1.13;;;12.00;99.90;;;;;;5000669;28;20014;-51
2022/09/14 01:56:00;;;;;;;4.25;1.38;;;11.90;99.90;;;;;;5000688;28;20076;-56
2022/09/14 01:58:39;;;;;;;2.35;1.50;;;11.90;99.90;;;;;;5004035;28;20599;-54
2022/09/14 02:01:09;;;;;;;2.83;1.00;;;11.90;99.90;;;;;;5002229;28;20030;-54
2022/09/14 02:03:43;;;;;;;4.13;1.90;;;11.90;99.90;;;;;;5003366;28;20121;-54
2022/09/14 02:06:18;;;;;;;5.45;1.60;;;11.80;99.90;;;;;;5002471;28;20024;-53
2022/09/14 02:08:43;;;;;;;1.40;1.25;;;11.80;99.90;;;;;;5003261;28;20040;-56
2022/09/14 02:11:09;;;;;;;1.45;1.20;;;11.80;99.90;;;;;;5002218;28;20096;-55
2022/09/14 02:13:34;;;;;;;5.60;1.40;;;11.80;99.90;;;;;;5002281;28;20022;-56
2022/09/14 02:16:00;;;;;;;2.97;1.50;;;11.80;99.90;;;;;;5001511;28;20061;-53
2022/09/14 02:18:26;;;;;;;4.63;1.35;;;11.70;99.90;;;;;;5003194;28;20053;-54
2022/09/14 02:20:59;;;;;;;3.83;1.25;;;11.80;99.90;;;;;;5001422;28;20053;-57
2022/09/14 02:23:25;;;;;;;2.70;1.35;;;11.80;99.90;;;;;;5002707;28;20026;-56
2022/09/14 02:25:51;;;;;;;3.45;1.05;;;11.80;99.90;;;;;;5002735;28;20030;-52
2022/09/14 02:28:16;;;;;;;2.35;1.20;;;11.70;99.90;;;;;;5003269;28;20018;-53
2022/09/14 02:30:51;;;;;;;3.55;1.42;;;11.70;99.90;;;;;;5001378;28;20431;-55
2022/09/14 02:33:41;;;;;;;3.58;1.10;;;11.70;99.90;;;;;;4990929;28;20021;-54
2022/09/14 02:36:15;;;;;;;2.45;1.23;;;11.70;99.90;;;;;;5001104;28;20022;-55
2022/09/14 02:38:58;;;;;;;2.60;1.15;;;11.70;99.90;;;;;;5002910;28;20018;-54
2022/09/14 02:42:07;;;;;;;2.38;1.25;;;11.70;99.90;;;;;;5002576;28;20069;-51
2022/09/14 02:45:01;;;;;;;5.00;1.95;;;11.70;99.90;;;;;;4996622;28;20034;-52
2022/09/14 02:47:54;;;;;;;6.07;1.13;;;11.60;99.90;;;;;;4993870;28;20018;-55
2022/09/14 02:51:02;;;;;;;3.38;1.50;;;11.60;99.90;;;;;;5001293;28;20018;-54
2022/09/14 02:53:32;;;;;;;7.95;1.75;;;11.60;99.90;;;;;;4995895;28;20030;-55
2022/09/14 02:56:02;;;;;;;3.35;1.60;;;11.60;99.90;;;;;;5000154;28;20101;-56
2022/09/14 02:58:42;;;;;;;2.38;1.13;;;11.60;99.90;;;;;;5003093;28;20532;-56
2022/09/14 03:01:14;;;;;;;5.55;1.77;;;11.50;99.90;;;;;;5001439;28;20042;-55
2022/09/14 03:03:40;;;;;;;3.70;1.60;;;11.60;99.90;;;;;;5002230;28;20060;-56
2022/09/14 03:06:06;;;;;;;3.03;1.48;;;11.50;99.90;;;;;;5000611;28;20022;-54
2022/09/14 03:08:32;;;;;;;5.13;1.70;;;11.50;99.90;;;;;;5003574;28;20497;-54
2022/09/14 03:10:58;;;;;;;3.83;1.40;;;11.50;99.90;;;;;;4999731;28;20037;-56
2022/09/14 03:13:24;;;;;;;5.18;1.92;;;11.50;99.90;;;;;;5001579;28;20405;-55
2022/09/14 03:15:49;;;;;;;3.45;1.80;;;11.50;99.90;;;;;;4999161;28;20370;-56
2022/09/14 03:18:15;;;;;;;5.13;1.73;;;11.50;99.90;;;;;;5001336;28;20373;-57
2022/09/14 03:20:41;;;;;;;4.50;1.67;;;11.50;99.90;;;;;;4983538;28;20022;-54
2022/09/14 03:23:10;;;;;;;4.20;1.58;;;11.40;99.90;;;;;;5000539;28;20031;-52
2022/09/14 03:25:38;;;;;;;1.52;1.42;;;11.40;99.90;;;;;;5002442;28;20120;-55
2022/09/14 03:28:05;;;;;;;3.47;1.83;;;11.40;99.90;;;;;;5000305;28;20022;-55
2022/09/14 03:30:31;;;;;;;3.33;1.80;;;11.40;99.90;;;;;;4996360;28;20037;-55
2022/09/14 03:32:57;;;;;;;4.65;1.50;;;11.40;99.90;;;;;;4999142;28;20026;-54
2022/09/14 03:35:23;;;;;;;4.70;2.35;;;11.40;99.90;;;;;;5001711;28;20449;-51
2022/09/14 03:37:49;;;;;;;4.53;1.98;;;11.40;99.90;;;;;;5000539;28;20034;-56
2022/09/14 03:40:16;;;;;;;4.13;1.20;;;11.30;99.90;;;;;;5001517;28;20400;-54
2022/09/14 03:42:47;;;;;;;4.80;1.55;;;11.30;99.90;;;;;;4967598;28;20491;-56
2022/09/14 03:45:13;;;;;;;4.13;1.20;;;11.30;99.90;;;;;;5001025;28;20540;-56
2022/09/14 03:47:40;;;;;;;2.88;1.17;;;11.30;99.90;;;;;;4994776;28;20058;-55
2022/09/14 03:50:07;;;;;;;3.03;1.63;;;11.30;99.90;;;;;;5001062;28;20544;-55
2022/09/14 03:52:34;;;;;;;4.55;1.30;;;11.30;99.90;;;;;;5001122;28;20026;-55
2022/09/14 03:54:59;;;;;;;2.95;1.50;;;11.20;99.90;;;;;;4999614;28;20780;-57
2022/09/14 03:57:25;;;;;;;3.58;1.95;;;11.20;99.90;;;;;;5000790;28;20034;-55
2022/09/14 03:59:51;;;;;;;4.43;1.50;;;11.20;99.90;;;;;;5000998;28;20029;-56
2022/09/14 04:02:16;;;;;;;5.28;1.70;;;11.20;99.90;;;;;;5003708;28;20034;-57
2022/09/14 04:04:42;;;;;;;4.63;1.25;;;11.20;99.90;;;;;;5005279;28;20033;-57
2022/09/14 04:07:07;;;;;;;3.25;1.33;;;11.20;99.90;;;;;;5004143;28;20065;-55
2022/09/14 04:09:33;;;;;;;2.83;1.73;;;11.20;99.90;;;;;;5005307;28;20060;-56
2022/09/14 04:11:59;;;;;;;5.63;1.65;;;11.20;99.90;;;;;;5003734;28;20171;-55
2022/09/14 04:14:25;;;;;;;2.58;1.65;;;11.20;99.90;;;;;;5004234;28;20026;-55
2022/09/14 04:16:51;;;;;;;4.18;1.42;;;11.20;99.90;;;;;;5004946;28;20041;-54
2022/09/14 04:19:19;;;;;;;3.20;1.20;;;11.20;99.90;;;;;;5003726;28;20033;-52
2022/09/14 04:21:44;;;;;;;6.03;1.77;;;11.20;99.90;;;;;;5004766;28;20065;-57
2022/09/14 04:24:13;;;;;;;4.60;1.50;;;11.20;99.90;;;;;;5005117;28;20413;-57
2022/09/14 04:26:39;;;;;;;4.57;1.52;;;11.30;99.90;;;;;;5005209;28;20029;-53
2022/09/14 04:29:04;;;;;;;2.97;1.45;;;11.20;99.90;;;;;;5002608;28;20022;-53
2022/09/14 04:31:31;;;;;;;4.07;1.45;;;11.30;99.90;;;;;;5004493;28;20049;-52
2022/09/14 04:33:56;;;;;;;4.88;1.85;;;11.30;99.90;;;;;;4985925;28;20028;-55
2022/09/14 04:36:27;;;;;;;3.78;1.35;;;11.30;99.90;;;;;;5004640;28;20217;-55
2022/09/14 04:38:55;;;;;;;3.80;1.25;;;11.40;99.90;;;;;;5004275;28;20026;-54
2022/09/14 04:41:22;;;;;;;5.85;1.77;;;11.40;99.90;;;;;;5004411;28;20022;-52
2022/09/14 04:43:49;;;;;;;5.60;1.88;;;11.40;99.90;;;;;;5004545;28;20104;-52
2022/09/14 04:46:23;;;;;;;4.35;2.22;;;11.50;99.90;;;;;;4981638;28;20073;-52
2022/09/14 04:48:49;;;;;;;7.50;1.75;;;11.50;99.90;;;;;;4998210;28;20057;-55
2022/09/14 04:51:20;;;;;;;2.85;1.30;;;11.50;99.90;;;;;;5008251;28;20018;-53
2022/09/14 04:53:49;;;;;;;3.40;1.63;;;11.50;99.90;;;;;;5000999;28;20854;-51
2022/09/14 04:56:15;;;;;;;7.32;2.17;;;11.60;99.90;;;;;;4996657;28;20084;-56
2022/09/14 04:58:43;;;;;;;4.32;1.45;;;11.60;99.90;;;;;;5003295;28;20059;-52
2022/09/14 05:01:14;;;;;;;2.42;1.38;;;11.60;99.90;;;;;;5003513;28;20496;-53
2022/09/14 05:03:41;;;;;;;7.60;1.85;;;11.60;99.90;;;;;;5003949;28;20392;-55
2022/09/14 05:06:18;;;;;;;9.52;3.15;;;11.70;99.90;;;;;;5002987;28;20416;-54
2022/09/14 05:08:44;;;;;;;11.02;4.70;;;11.70;99.90;;;;;;5004345;28;20026;-53
2022/09/14 05:11:13;;;;;;;7.55;2.35;;;11.70;99.90;;;;;;5003679;28;20032;-52
2022/09/14 05:13:42;;;;;;;8.25;2.20;;;11.70;99.90;;;;;;5003209;28;20061;-52
2022/09/14 05:16:31;;;;;;;6.03;2.10;;;11.80;99.90;;;;;;5003466;28;20026;-55
2022/09/14 05:19:02;;;;;;;8.65;2.85;;;11.80;99.90;;;;;;5002346;28;20034;-58
2022/09/14 05:21:30;;;;;;;3.80;1.98;;;11.80;99.90;;;;;;5003984;28;20242;-52
2022/09/14 05:23:58;;;;;;;3.00;1.77;;;11.80;99.90;;;;;;5003408;28;20022;-56
2022/09/14 05:26:25;;;;;;;3.92;2.10;;;11.90;99.90;;;;;;5004116;28;20026;-55
2022/09/14 05:28:52;;;;;;;6.80;1.80;;;11.90;99.90;;;;;;5003673;28;20032;-55
2022/09/14 05:31:18;;;;;;;4.53;1.48;;;11.90;99.90;;;;;;5001928;28;20503;-56
2022/09/14 05:33:44;;;;;;;5.53;1.58;;;11.90;99.90;;;;;;5004377;28;20030;-55
2022/09/14 05:36:10;;;;;;;6.22;2.08;;;12.00;99.90;;;;;;4981991;28;20432;-53
2022/09/14 05:38:38;;;;;;;9.13;1.83;;;12.00;99.90;;;;;;5003193;28;20076;-52
2022/09/14 05:41:05;;;;;;;5.20;1.88;;;12.00;99.90;;;;;;5003147;28;20113;-56
2022/09/14 05:43:31;;;;;;;3.60;1.85;;;12.00;99.90;;;;;;5003326;28;20017;-52
2022/09/14 05:46:03;;;;;;;7.00;1.83;;;12.10;99.90;;;;;;5002364;28;20038;-54
2022/09/14 05:48:33;;;;;;;5.95;2.08;;;12.10;99.90;;;;;;4982713;28;20488;-52
2022/09/14 05:51:00;;;;;;;4.65;2.38;;;12.10;99.90;;;;;;5007771;28;20113;-52
2022/09/14 05:53:26;;;;;;;4.22;1.70;;;12.20;99.90;;;;;;5000374;28;20106;-57
2022/09/14 05:56:11;;;;;;;2.65;1.35;;;12.20;99.90;;;;;;5000908;28;20035;-53
2022/09/14 05:58:38;;;;;;;6.05;1.80;;;12.30;99.90;;;;;;5003093;28;20122;-55
2022/09/14 06:01:08;;;;;;;4.30;1.45;;;12.30;99.90;;;;;;5002077;28;20484;-52
2022/09/14 06:03:33;;;;;;;6.47;2.13;;;12.30;99.90;;;;;;5003787;28;20023;-55
2022/09/14 06:05:59;;;;;;;4.35;1.30;;;12.40;99.90;;;;;;5000896;28;20027;-52
2022/09/14 06:08:25;;;;;;;3.92;1.77;;;12.40;99.90;;;;;;5005922;28;20110;-53
2022/09/14 06:10:50;;;;;;;3.15;1.75;;;12.40;99.90;;;;;;4997234;28;20575;-58
2022/09/14 06:13:16;;;;;;;4.72;1.88;;;12.50;99.90;;;;;;5003282;28;20141;-56
2022/09/14 06:15:41;;;;;;;3.88;1.70;;;12.60;99.90;;;;;;5001492;28;20023;-52
2022/09/14 06:18:07;;;;;;;2.60;1.50;;;12.60;99.90;;;;;;5001926;28;20564;-53
2022/09/14 06:20:33;;;;;;;5.60;2.45;;;12.60;99.90;;;;;;5003647;28;20030;-57
2022/09/14 06:22:58;;;;;;;4.85;1.73;;;12.70;99.90;;;;;;5000208;28;20053;-54
2022/09/14 06:25:24;;;;;;;4.82;1.90;;;12.80;99.90;;;;;;5005522;28;20034;-55
2022/09/14 06:27:53;;;;;;;5.82;1.45;;;12.80;99.90;;;;;;4999567;28;20022;-58
2022/09/14 06:30:19;;;;;;;7.82;1.92;;;12.80;99.90;;;;;;5003148;28;20057;-57
2022/09/14 06:32:45;;;;;;;7.45;1.80;;;12.90;99.90;;;;;;5001165;28;20018;-55
2022/09/14 06:35:10;;;;;;;4.80;2.20;;;13.00;99.90;;;;;;5002371;28;20034;-54
2022/09/14 06:37:36;;;;;;;4.28;1.77;;;13.00;99.90;;;;;;5002960;28;20161;-52
2022/09/14 06:40:05;;;;;;;4.70;2.20;;;13.10;99.90;;;;;;5001358;28;20100;-52
2022/09/14 06:42:30;;;;;;;5.65;2.72;;;13.10;99.90;;;;;;5004206;28;20385;-54
2022/09/14 06:44:56;;;;;;;5.63;1.83;;;13.20;99.90;;;;;;5037855;23;20029;-46
2022/09/14 06:47:22;;;;;;;5.72;1.83;;;13.20;99.90;;;;;;5042049;28;20028;-45
2022/09/14 06:49:49;;;;;;;5.32;1.33;;;13.30;99.90;;;;;;5041044;28;20017;-47
2022/09/14 06:52:14;;;;;;;7.55;2.03;;;13.30;99.90;;;;;;5027809;28;20017;-47
2022/09/14 06:54:40;;;;;;;6.28;1.67;;;13.30;99.90;;;;;;5038770;28;20029;-47
2022/09/14 06:57:05;;;;;;;5.22;1.42;;;13.30;99.90;;;;;;5041476;28;20074;-47
2022/09/14 06:59:31;;;;;;;5.30;2.72;;;13.40;99.90;;;;;;5040826;28;20036;-46
2022/09/14 07:01:56;;;;;;;7.60;2.25;;;13.40;99.90;;;;;;5039088;28;20025;-50
2022/09/14 07:04:23;;;;;;;5.75;1.75;;;13.40;99.90;;;;;;5045303;28;20017;-46
2022/09/14 07:06:49;;;;;;;6.80;2.15;;;13.50;99.90;;;;;;5037676;28;20021;-48
2022/09/14 07:09:16;;;;;;;3.80;1.85;;;13.60;99.90;;;;;;5042061;28;20460;-46
2022/09/14 07:11:43;;;;;;;9.82;2.08;;;13.60;99.90;;;;;;5022403;28;20292;-48
2022/09/14 07:14:09;;;;;;;7.25;1.60;;;13.70;99.90;;;;;;5040305;28;20028;-49
2022/09/14 07:16:36;;;;;;;4.57;1.48;;;13.80;99.90;;;;;;5042397;28;20095;-46
2022/09/14 07:19:05;;;;;;;3.28;1.58;;;13.90;99.90;;;;;;5039025;28;20451;-49
2022/09/14 07:21:32;;;;;;;7.50;1.70;;;14.00;99.90;;;;;;5040929;28;20029;-47
2022/09/14 07:23:58;;;;;;;4.43;1.65;;;14.10;99.90;;;;;;5036751;28;20018;-46
2022/09/14 07:26:29;;;;;;;5.80;1.60;;;14.30;99.90;;;;;;5041431;28;20051;-47
2022/09/14 07:28:59;;;;;;;3.17;1.50;;;14.50;99.90;;;;;;5040338;28;20040;-49
2022/09/14 07:31:33;;;;;;;6.38;2.42;;;14.60;99.90;;;;;;5023147;28;20031;-49
2022/09/14 07:34:02;;;;;;;8.45;3.83;;;14.70;99.90;;;;;;5040797;28;20026;-49
2022/09/14 07:36:28;;;;;;;4.90;1.90;;;14.80;99.90;;;;;;5022280;28;20047;-46
2022/09/14 07:38:54;;;;;;;6.57;2.15;;;15.00;99.90;;;;;;5039329;28;20539;-50
2022/09/14 07:41:25;;;;;;;4.10;1.63;;;15.20;99.90;;;;;;5041048;28;20025;-47
2022/09/14 07:43:53;;;;;;;4.13;1.50;;;15.40;99.90;;;;;;5040240;28;20060;-47
2022/09/14 07:46:19;;;;;;;7.30;1.92;;;15.50;99.90;;;;;;5041027;28;20128;-47
2022/09/14 07:48:45;;;;;;;6.32;1.65;;;15.50;99.90;;;;;;5041367;28;20021;-46
2022/09/14 07:51:11;;;;;;;3.67;1.30;;;15.60;99.90;;;;;;5040582;28;20028;-47
2022/09/14 07:53:39;;;;;;;4.15;2.03;;;15.60;99.90;;;;;;5043006;28;20039;-46
2022/09/14 07:56:06;;;;;;;4.57;1.73;;;15.60;99.90;;;;;;5039088;28;20059;-46
2022/09/14 07:58:32;;;;;;;4.65;1.50;;;15.50;99.90;;;;;;5040898;28;20475;-46
2022/09/14 08:01:03;;;;;;;6.93;2.58;;;15.50;99.90;;;;;;5039187;28;20434;-47
2022/09/14 08:03:31;;;;;;;4.35;1.63;;;15.50;99.90;;;;;;5040247;28;20021;-48
2022/09/14 08:06:02;;;;;;;4.90;1.83;;;15.50;99.90;;;;;;5038654;28;20052;-46
2022/09/14 08:08:29;;;;;;;2.85;1.13;;;15.60;99.90;;;;;;5041363;28;20051;-47
2022/09/14 08:11:04;;;;;;;3.75;2.30;;;15.60;99.90;;;;;;5040184;28;20413;-46
2022/09/14 08:13:32;;;;;;;5.65;1.75;;;15.60;99.90;;;;;;5036214;28;20407;-48
2022/09/14 08:15:59;;;;;;;4.47;1.10;;;15.60;99.90;;;;;;5039360;28;20028;-48
2022/09/14 08:18:25;;;;;;;2.25;0.90;;;15.60;99.90;;;;;;5036963;28;20375;-46
2022/09/14 08:20:52;;;;;;;7.28;1.27;;;15.70;99.90;;;;;;5025395;28;20056;-46
2022/09/14 08:23:17;;;;;;;5.20;1.30;;;15.70;99.90;;;;;;5036906;28;20497;-46
2022/09/14 08:25:43;;;;;;;5.68;1.63;;;15.70;99.90;;;;;;5025469;28;20152;-48
2022/09/14 08:28:08;;;;;;;3.13;1.00;;;15.80;99.90;;;;;;5037337;28;20124;-47
2022/09/14 08:30:34;;;;;;;7.97;1.75;;;15.90;99.90;;;;;;5042906;28;20024;-47
2022/09/14 08:33:00;;;;;;;4.78;1.10;;;15.90;99.90;;;;;;5020808;28;20096;-46
2022/09/14 08:35:25;;;;;;;5.03;1.75;;;16.00;99.90;;;;;;5036820;28;20498;-49
2022/09/14 08:37:51;;;;;;;7.22;2.00;;;16.10;99.90;;;;;;5025155;28;20420;-46
2022/09/14 08:40:16;;;;;;;4.65;1.70;;;16.00;99.90;;;;;;5019184;28;20025;-46
2022/09/14 08:42:43;;;;;;;5.18;1.58;;;16.10;99.90;;;;;;5042476;28;20099;-46
2022/09/14 08:45:14;;;;;;;4.05;1.40;;;16.10;99.90;;;;;;5037302;28;20522;-46
2022/09/14 08:47:40;;;;;;;7.63;2.90;;;16.20;99.90;;;;;;5027992;28;20025;-51
2022/09/14 08:50:09;;;;;;;3.42;1.13;;;16.30;99.90;;;;;;5041890;28;20017;-46
2022/09/14 08:52:42;;;;;;;10.57;1.65;;;16.40;99.90;;;;;;5035186;28;20072;-47
2022/09/14 08:55:13;;;;;;;4.93;1.55;;;16.50;99.90;;;;;;5046875;28;20025;-46
2022/09/14 08:57:54;;;;;;;3.50;1.52;;;16.60;99.90;;;;;;5022814;28;20368;-46
2022/09/14 09:00:30;;;;;;;3.38;1.55;;;16.70;99.90;;;;;;5033359;28;20535;-45
2022/09/14 09:03:02;;;;;;;4.93;1.75;;;16.80;99.90;;;;;;5024166;28;20569;-47
2022/09/14 09:05:37;;;;;;;5.22;1.38;;;16.90;99.90;;;;;;5043591;28;20025;-46
2022/09/14 09:08:26;;;;;;;4.80;1.55;;;17.00;99.90;;;;;;5042393;28;20021;-47
2022/09/14 09:10:53;;;;;;;6.13;1.80;;;17.00;99.90;;;;;;5043673;28;20021;-47
2022/09/14 09:13:25;;;;;;;4.20;1.83;;;17.10;99.90;;;;;;5025765;28;20024;-48
2022/09/14 09:15:53;;;;;;;5.30;1.10;;;17.10;99.90;;;;;;5043345;28;20473;-49
2022/09/14 09:18:39;;;;;;;7.20;1.58;;;17.20;99.90;;;;;;5040098;28;20025;-47
2022/09/14 09:21:13;;;;;;;2.75;1.10;;;17.20;99.90;;;;;;5046351;28;20025;-46
2022/09/14 09:23:40;;;;;;;2.80;1.20;;;17.20;99.90;;;;;;5040245;28;20037;-47
2022/09/14 09:26:24;;;;;;;5.10;1.40;;;17.30;99.90;;;;;;5047031;28;20055;-46
2022/09/14 09:28:53;;;;;;;4.63;1.42;;;17.40;99.90;;;;;;5019351;28;20068;-47
2022/09/14 09:31:32;;;;;;;5.28;1.13;;;17.50;99.90;;;;;;5047135;28;20294;-47
2022/09/14 09:33:58;;;;;;;4.97;1.27;;;17.50;99.90;;;;;;5039165;28;20021;-49
2022/09/14 09:36:23;;;;;;;3.10;1.23;;;17.50;99.90;;;;;;5043439;28;20052;-48
2022/09/14 09:38:49;;;;;;;4.60;1.40;;;17.50;99.90;;;;;;5041065;28;20185;-47
2022/09/14 09:41:28;;;;;;;4.38;1.00;;;17.50;99.90;;;;;;5025166;28;20044;-46
2022/09/14 09:43:56;;;;;;;7.03;2.40;;;17.50;99.90;;;;;;5041685;28;20113;-48
2022/09/14 09:46:22;;;;;;;7.82;1.40;;;17.40;99.90;;;;;;5043007;28;20029;-48
2022/09/14 09:48:48;;;;;;;2.17;1.15;;;17.30;99.90;;;;;;5042971;28;20389;-46
2022/09/14 09:51:22;;;;;;;3.10;0.85;;;17.30;99.90;;;;;;5029276;28;20028;-48
2022/09/14 09:53:59;;;;;;;3.30;1.23;;;17.30;99.90;;;;;;5023006;28;20102;-48
2022/09/14 09:56:28;;;;;;;3.40;1.08;;;17.30;99.90;;;;;;5015681;28;20071;-46
2022/09/14 09:58:53;;;;;;;5.80;1.35;;;17.20;99.90;;;;;;5022860;28;20028;-47
2022/09/14 10:01:40;;;;;;;6.43;1.10;;;17.30;99.90;;;;;;5040110;28;20021;-46
2022/09/14 10:04:21;;;;;;;7.30;1.52;;;17.30;99.90;;;;;;5045478;28;20025;-46
2022/09/14 10:06:49;;;;;;;2.50;0.93;;;17.30;99.90;;;;;;5035304;28;20188;-46
2022/09/14 10:09:20;;;;;;;3.92;1.35;;;17.30;99.90;;;;;;5033217;28;20363;-46
2022/09/14 10:11:56;;;;;;;11.93;1.35;;;17.30;99.90;;;;;;5035233;28;20049;-46
2022/09/14 10:14:30;;;;;;;4.78;1.17;;;17.30;99.90;;;;;;5032518;28;20018;-47
2022/09/14 10:17:17;;;;;;;4.00;1.05;;;17.30;99.90;;;;;;5037716;28;20036;-47
2022/09/14 10:19:51;;;;;;;2.72;1.08;;;17.30;99.90;;;;;;5022583;28;20031;-48
2022/09/14 10:22:31;;;;;;;3.05;1.35;;;17.20;99.90;;;;;;5030364;28;20025;-49
2022/09/14 10:25:13;;;;;;;7.32;2.15;;;17.10;99.90;;;;;;5023187;28;20032;-46
2022/09/14 10:27:44;;;;;;;6.13;1.77;;;17.00;99.90;;;;;;5042825;28;20021;-48
2022/09/14 10:30:18;;;;;;;5.75;1.63;;;16.90;99.90;;;;;;5042305;28;20115;-46
2022/09/14 10:32:59;;;;;;;4.28;0.95;;;16.90;99.90;;;;;;5042377;28;20051;-46
2022/09/14 10:35:38;;;;;;;6.47;1.15;;;16.80;99.90;;;;;;5019881;28;20033;-45
2022/09/14 10:38:29;;;;;;;3.38;1.17;;;16.80;99.90;;;;;;5027222;28;20054;-49
2022/09/14 10:41:21;;;;;;;2.95;0.63;;;16.70;99.90;;;;;;5036920;28;20025;-46
2022/09/14 10:44:18;;;;;;;2.22;1.08;;;16.80;99.90;;;;;;5003725;28;20025;-46
2022/09/14 10:47:08;;;;;;;3.42;1.52;;;16.80;99.90;;;;;;5035844;28;20507;-47
2022/09/14 10:49:38;;;;;;;8.43;1.27;;;16.80;99.90;;;;;;5036051;28;20029;-46
2022/09/14 10:52:30;;;;;;;8.57;1.33;;;16.90;99.90;;;;;;5040690;28;20434;-49
2022/09/14 10:55:19;;;;;;;4.15;1.30;;;16.90;99.90;;;;;;5026529;28;20036;-46
2022/09/14 10:58:11;;;;;;;5.95;1.48;;;17.10;99.90;;;;;;5034758;28;20051;-45
2022/09/14 11:01:15;;;;;;;5.78;1.25;;;17.20;99.90;;;;;;5030926;28;20051;-46
2022/09/14 11:04:12;;;;;;;6.88;1.30;;;17.30;99.90;;;;;;5012394;28;20106;-49
2022/09/14 11:07:01;;;;;;;2.78;1.25;;;17.50;99.90;;;;;;5037691;28;20052;-47
2022/09/14 11:09:39;;;;;;;6.45;1.40;;;17.50;99.90;;;;;;4993954;28;20038;-46
2022/09/14 11:12:30;;;;;;;4.38;1.42;;;17.50;99.90;;;;;;5040460;28;20025;-45
2022/09/14 11:15:20;;;;;;;4.97;1.25;;;17.60;99.90;;;;;;5040628;28;20021;-51
2022/09/14 11:18:03;;;;;;;3.90;1.58;;;17.60;99.90;;;;;;5040856;28;20083;-46
2022/09/14 11:20:36;;;;;;;2.35;1.02;;;17.60;99.90;;;;;;5017246;28;20032;-45
2022/09/14 11:23:16;;;;;;;4.68;1.35;;;17.70;99.90;;;;;;5021207;28;20033;-48
2022/09/14 11:25:51;;;;;;;4.80;1.40;;;17.70;99.90;;;;;;5025879;28;20059;-47
2022/09/14 11:28:24;;;;;;;5.03;1.60;;;17.70;99.90;;;;;;5034085;28;20083;-51
2022/09/14 11:31:20;;;;;;;4.18;1.02;;;17.80;99.90;;;;;;5045612;28;20302;-47
2022/09/14 11:34:15;;;;;;;2.35;1.08;;;17.80;99.90;;;;;;5037560;28;20029;-46
2022/09/14 11:36:48;;;;;;;5.88;1.58;;;17.90;99.90;;;;;;5031402;28;20032;-46
2022/09/14 11:39:28;;;;;;;3.78;1.20;;;18.00;99.90;;;;;;5028550;28;20228;-46
2022/09/14 11:42:06;;;;;;;4.82;1.00;;;18.00;99.90;;;;;;5039138;28;20036;-46
2022/09/14 11:44:36;;;;;;;4.28;0.80;;;18.00;99.90;;;;;;5022937;28;20025;-51
2022/09/14 11:47:06;;;;;;;4.00;1.20;;;18.10;99.90;;;;;;5040454;28;20025;-48
2022/09/14 11:49:45;;;;;;;6.97;1.65;;;18.00;99.90;;;;;;5041278;28;20021;-46
2022/09/14 11:52:16;;;;;;;6.15;2.53;;;17.90;99.90;;;;;;5037817;28;20056;-46
2022/09/14 11:54:43;;;;;;;5.57;1.30;;;17.80;99.90;;;;;;5042590;28;20527;-49
2022/09/14 11:57:16;;;;;;;5.72;1.40;;;17.80;99.90;;;;;;5038304;28;20029;-47
2022/09/14 11:59:43;;;;;;;5.07;1.60;;;17.70;99.90;;;;;;5020865;28;20028;-46
2022/09/14 12:02:26;;;;;;;6.60;1.60;;;17.60;99.90;;;;;;5039826;28;20033;-46
2022/09/14 12:05:04;;;;;;;4.00;1.48;;;17.50;99.90;;;;;;5038113;28;20013;-46
2022/09/14 12:07:42;;;;;;;2.65;1.30;;;17.40;99.90;;;;;;5022601;28;20115;-46
2022/09/14 12:10:14;;;;;;;4.68;1.10;;;17.40;99.90;;;;;;5021530;28;20450;-46
2022/09/14 12:12:41;;;;;;;4.90;1.10;;;17.40;99.90;;;;;;5040507;28;20105;-45
2022/09/14 12:15:32;;;;;;;5.75;1.95;;;17.30;99.90;;;;;;5039887;28;20079;-46
2022/09/14 12:18:06;;;;;;;4.63;1.13;;;17.30;99.90;;;;;;5020420;28;20483;-46
2022/09/14 12:20:43;;;;;;;4.65;2.05;;;17.30;99.90;;;;;;5040855;28;20040;-47
2022/09/14 12:23:12;;;;;;;6.97;1.38;;;17.40;99.90;;;;;;5040908;28;20037;-46
2022/09/14 12:25:51;;;;;;;5.63;1.42;;;17.30;99.90;;;;;;5028824;28;20564;-48
2022/09/14 12:28:34;;;;;;;6.18;1.75;;;17.20;99.90;;;;;;5037005;28;20021;-47
2022/09/14 12:31:03;;;;;;;2.88;1.58;;;17.10;99.90;;;;;;5048702;28;20027;-49
2022/09/14 12:33:31;;;;;;;4.60;1.50;;;17.10;99.90;;;;;;5040727;28;20036;-46
2022/09/14 12:36:01;;;;;;;3.75;1.20;;;17.00;99.90;;;;;;5042093;28;20484;-46
2022/09/14 12:38:29;;;;;;;4.95;1.15;;;17.00;99.90;;;;;;5027211;28;20064;-46
2022/09/14 12:40:59;;;;;;;5.75;1.20;;;17.00;99.90;;;;;;5041584;28;20021;-49
2022/09/14 12:43:34;;;;;;;6.45;1.58;;;17.00;99.90;;;;;;5045757;28;20360;-47
2022/09/14 12:46:21;;;;;;;5.93;1.77;;;17.10;99.90;;;;;;5070163;22;20502;-58
2022/09/14 12:48:47;;;;;;;5.00;1.38;;;17.20;99.90;;;;;;5052013;28;20781;-57
2022/09/14 12:51:31;;;;;;;4.72;1.73;;;17.20;99.90;;;;;;5051807;28;20053;-56
2022/09/14 12:54:28;;;;;;;4.20;1.17;;;17.30;99.90;;;;;;5033811;28;20511;-57
2022/09/14 12:56:53;;;;;;;5.72;2.17;;;17.50;99.90;;;;;;5040021;28;20025;-56
2022/09/14 12:59:30;;;;;;;5.95;1.30;;;17.50;99.90;;;;;;5044164;28;20039;-58
2022/09/14 13:02:30;;;;;;;6.45;1.63;;;17.60;99.90;;;;;;5045953;28;20098;-55
2022/09/14 13:04:57;;;;;;;9.30;1.45;;;17.80;99.90;;;;;;5047159;28;20029;-57
2022/09/14 13:07:31;;;;;;;9.20;1.05;;;17.90;99.90;;;;;;5032533;28;20022;-55
2022/09/14 13:09:58;;;;;;;7.68;1.60;;;18.10;99.90;;;;;;5042042;28;20021;-55